Time;durP1;ratioP1;P1;durP2;ratioP2;P2;SDS_P1;SDS_P2;PMS_P1;PMS_P2;Temp;Humidity;BMP_temperature;BMP_pressure;BME280_temperature;BME280_humidity;BME280_pressure;Samples;Min_cycle;Max_cycle;Signal;HPM_P1;HPM_P2
2022/09/18 07:44:41;;;;;;;8.93;7.30;;;10.00;99.90;;;;;;5043290;28;20587;-70
2022/09/18 07:47:06;;;;;;;8.02;7.25;;;9.70;99.90;;;;;;5044972;28;20202;-72
2022/09/18 07:49:32;;;;;;;7.93;7.15;;;9.80;99.90;;;;;;5045213;28;20194;-71
2022/09/18 07:51:58;;;;;;;6.93;6.32;;;9.80;99.90;;;;;;5045047;28;20730;-72
2022/09/18 07:54:24;;;;;;;2.55;2.35;;;9.90;99.90;;;;;;5041958;28;20263;-71
2022/09/18 07:56:49;;;;;;;5.18;4.78;;;10.00;99.90;;;;;;5046979;28;20259;-71
2022/09/18 07:59:15;;;;;;;4.90;4.55;;;10.10;99.90;;;;;;5045733;28;20206;-71
2022/09/18 08:01:41;;;;;;;3.17;2.95;;;10.20;99.90;;;;;;5044862;28;20693;-72
2022/09/18 08:04:06;;;;;;;4.05;3.65;;;10.40;99.90;;;;;;5040056;28;20195;-71
2022/09/18 08:06:32;;;;;;;2.92;2.65;;;10.50;99.90;;;;;;5042730;28;20184;-72
2022/09/18 08:08:58;;;;;;;4.32;3.20;;;10.50;99.90;;;;;;5042818;28;20184;-71
2022/09/18 08:11:23;;;;;;;2.50;2.30;;;10.60;99.90;;;;;;5051381;28;20210;-70
2022/09/18 08:13:49;;;;;;;3.22;2.80;;;10.60;99.90;;;;;;5042472;28;20192;-70
2022/09/18 08:16:15;;;;;;;2.58;1.80;;;10.60;99.90;;;;;;5042839;28;20181;-69
2022/09/18 08:18:41;;;;;;;2.55;2.28;;;10.80;99.90;;;;;;5047185;28;20569;-70
2022/09/18 08:21:07;;;;;;;2.45;2.35;;;10.70;99.90;;;;;;5042427;28;20208;-71
2022/09/18 08:23:33;;;;;;;2.13;1.90;;;10.90;99.90;;;;;;5043163;28;20253;-71
2022/09/18 08:26:03;;;;;;;2.08;1.80;;;11.00;99.90;;;;;;5040139;28;20543;-68
2022/09/18 08:28:29;;;;;;;2.20;2.03;;;11.10;99.90;;;;;;5045016;28;20184;-68
2022/09/18 08:30:56;;;;;;;3.80;2.47;;;11.20;99.90;;;;;;5044536;28;20199;-71
2022/09/18 08:33:22;;;;;;;3.00;2.20;;;11.30;99.90;;;;;;5036507;28;20188;-71
2022/09/18 08:35:48;;;;;;;3.65;2.60;;;11.30;99.90;;;;;;5035842;28;20555;-71
2022/09/18 08:38:13;;;;;;;1.90;1.80;;;11.30;99.90;;;;;;5034016;28;20242;-71
2022/09/18 08:40:59;;;;;;;3.53;3.00;;;11.30;99.90;;;;;;5036615;28;20687;-70
2022/09/18 08:43:39;;;;;;;4.68;3.28;;;11.30;99.90;;;;;;5043470;28;20240;-71
2022/09/18 08:46:34;;;;;;;2.90;2.63;;;11.30;99.90;;;;;;5039961;28;20521;-72
2022/09/18 08:49:14;;;;;;;2.42;2.22;;;11.20;99.90;;;;;;5048814;28;20201;-75
2022/09/18 08:51:44;;;;;;;4.38;3.97;;;11.00;99.90;;;;;;5046621;28;20204;-72
2022/09/18 08:54:38;;;;;;;5.63;4.25;;;11.00;99.90;;;;;;5040827;28;20679;-73
2022/09/18 08:57:16;;;;;;;4.35;3.97;;;10.90;99.90;;;;;;5026992;28;20535;-73
2022/09/18 09:00:00;;;;;;;6.90;4.70;;;10.90;99.90;;;;;;5038215;28;20240;-72
2022/09/18 09:02:50;;;;;;;4.90;2.70;;;11.00;99.90;;;;;;5023720;28;20173;-72
2022/09/18 09:05:21;;;;;;;2.13;1.98;;;11.00;99.90;;;;;;5022710;28;20176;-73
2022/09/18 09:08:26;;;;;;;2.95;2.50;;;11.10;99.90;;;;;;5026596;28;20216;-72
2022/09/18 09:11:07;;;;;;;3.85;3.55;;;11.10;99.90;;;;;;5032616;28;20212;-72
2022/09/18 09:14:01;;;;;;;1.83;1.58;;;11.20;99.90;;;;;;5033288;28;20176;-72
2022/09/18 09:16:43;;;;;;;2.85;1.77;;;11.10;99.90;;;;;;5033166;28;20215;-72
2022/09/18 09:19:36;;;;;;;1.73;1.63;;;11.20;99.90;;;;;;5028211;28;20176;-71
2022/09/18 09:22:17;;;;;;;2.63;2.42;;;11.30;99.90;;;;;;5031975;28;20180;-73
2022/09/18 09:25:07;;;;;;;2.20;1.50;;;11.30;99.90;;;;;;5034237;28;20183;-72
2022/09/18 09:27:44;;;;;;;3.03;1.80;;;11.30;99.90;;;;;;5033923;28;20180;-73
2022/09/18 09:30:19;;;;;;;1.70;1.60;;;11.40;99.90;;;;;;5027896;28;20197;-73
2022/09/18 09:33:21;;;;;;;1.75;1.65;;;11.60;99.90;;;;;;5032617;28;20192;-72
2022/09/18 09:35:52;;;;;;;1.45;1.45;;;11.90;99.90;;;;;;5020641;28;20204;-73
2022/09/18 09:38:31;;;;;;;1.60;1.60;;;12.00;99.90;;;;;;5029513;28;20216;-72
2022/09/18 09:41:00;;;;;;;2.50;2.17;;;12.20;99.90;;;;;;5023979;28;20203;-73
2022/09/18 09:43:32;;;;;;;2.03;1.80;;;12.30;99.90;;;;;;5026335;28;20209;-73
2022/09/18 09:46:28;;;;;;;2.15;1.95;;;12.50;99.90;;;;;;5033149;28;20176;-73
2022/09/18 09:49:09;;;;;;;2.50;2.30;;;12.60;99.90;;;;;;5046993;28;20226;-73
2022/09/18 09:52:24;;;;;;;2.13;1.85;;;12.40;99.90;;;;;;5048517;28;20713;-73
2022/09/18 09:54:58;;;;;;;1.30;1.20;;;12.00;99.90;;;;;;5031016;28;20195;-72
2022/09/18 09:57:38;;;;;;;3.70;1.27;;;11.70;99.90;;;;;;5033513;28;20191;-74
2022/09/18 10:00:13;;;;;;;2.03;1.30;;;11.50;99.90;;;;;;5029636;28;20199;-72
2022/09/18 10:03:02;;;;;;;1.63;1.52;;;11.40;99.90;;;;;;5022891;28;20211;-72
2022/09/18 10:06:01;;;;;;;1.40;1.33;;;11.30;99.90;;;;;;5027509;28;20180;-73
2022/09/18 10:08:51;;;;;;;1.13;1.10;;;11.40;99.90;;;;;;5023483;28;20219;-74
2022/09/18 10:11:17;;;;;;;1.48;1.30;;;11.50;99.90;;;;;;5033133;28;20200;-73
2022/09/18 10:13:52;;;;;;;1.00;1.00;;;11.80;99.90;;;;;;5024158;28;20173;-72
2022/09/18 10:16:22;;;;;;;1.05;1.05;;;12.30;99.90;;;;;;5036494;28;20654;-73
2022/09/18 10:18:49;;;;;;;1.17;1.17;;;12.80;99.90;;;;;;5024244;28;20333;-74
2022/09/18 10:21:23;;;;;;;1.98;1.55;;;12.90;99.90;;;;;;5028007;28;20215;-73
2022/09/18 10:24:04;;;;;;;1.25;1.25;;;12.90;99.90;;;;;;5028343;28;20211;-74
2022/09/18 10:26:48;;;;;;;1.05;0.95;;;12.90;99.90;;;;;;5029427;28;20264;-73
2022/09/18 10:29:16;;;;;;;1.15;1.13;;;13.00;99.90;;;;;;5033997;28;20181;-73
2022/09/18 10:31:55;;;;;;;1.13;1.13;;;13.20;99.90;;;;;;5044164;28;20227;-73
2022/09/18 10:34:47;;;;;;;1.33;1.02;;;13.70;99.90;;;;;;5042193;28;20172;-74
2022/09/18 10:37:29;;;;;;;1.20;1.20;;;15.10;99.90;;;;;;5026281;28;20695;-75
2022/09/18 10:39:58;;;;;;;1.90;1.42;;;16.70;99.90;;;;;;5012449;28;20186;-75
2022/09/18 10:42:28;;;;;;;1.17;1.08;;;17.70;99.90;;;;;;5013360;28;20197;-76
2022/09/18 10:45:01;;;;;;;0.90;0.90;;;18.20;99.90;;;;;;5027600;28;20179;-75
2022/09/18 10:47:32;;;;;;;1.58;1.48;;;17.90;99.90;;;;;;5030573;28;20184;-79
2022/09/18 10:50:06;;;;;;;3.42;2.08;;;17.70;99.90;;;;;;5030775;28;20192;-76
2022/09/18 10:52:35;;;;;;;2.65;1.30;;;17.20;99.90;;;;;;5038289;28;20185;-76
2022/09/18 10:55:04;;;;;;;2.55;1.58;;;16.50;99.90;;;;;;5031490;28;20177;-75
2022/09/18 10:58:00;;;;;;;1.52;1.23;;;15.90;99.90;;;;;;5029357;28;20671;-76
2022/09/18 11:00:35;;;;;;;1.00;1.00;;;15.50;99.90;;;;;;5023273;28;20212;-75
2022/09/18 11:03:32;;;;;;;1.20;1.20;;;15.40;99.90;;;;;;5033364;28;20248;-76
2022/09/18 11:06:01;;;;;;;0.88;0.88;;;16.10;99.90;;;;;;5036681;28;20193;-75
2022/09/18 11:08:35;;;;;;;2.65;1.00;;;16.60;99.90;;;;;;5025329;28;20660;-75
2022/09/18 11:11:19;;;;;;;1.73;1.05;;;17.00;99.90;;;;;;5022090;28;20704;-75
2022/09/18 11:13:58;;;;;;;0.80;0.80;;;17.30;99.90;;;;;;5016266;28;20219;-77
2022/09/18 11:16:34;;;;;;;3.00;1.10;;;17.40;99.90;;;;;;5040131;28;20187;-78
2022/09/18 11:19:30;;;;;;;1.02;1.02;;;16.80;99.90;;;;;;5027248;28;20222;-75
2022/09/18 11:22:00;;;;;;;1.67;1.23;;;16.40;99.90;;;;;;5032499;28;20204;-77
2022/09/18 11:24:30;;;;;;;1.20;1.08;;;15.90;99.90;;;;;;5043381;28;20192;-75
2022/09/18 11:26:58;;;;;;;1.08;1.08;;;15.60;99.90;;;;;;5033502;28;20217;-75
2022/09/18 11:29:41;;;;;;;1.80;1.70;;;15.30;99.90;;;;;;5042360;28;20554;-77
2022/09/18 11:32:30;;;;;;;1.23;0.90;;;15.10;99.90;;;;;;5032602;28;20171;-75
2022/09/18 11:35:03;;;;;;;1.23;1.20;;;15.40;99.90;;;;;;5033286;28;20284;-76
2022/09/18 11:37:34;;;;;;;1.20;1.20;;;15.30;99.90;;;;;;5013517;28;20173;-76
2022/09/18 11:40:06;;;;;;;2.95;1.42;;;15.20;99.90;;;;;;5023140;28;20544;-74
2022/09/18 11:42:32;;;;;;;1.65;1.27;;;15.40;99.90;;;;;;5026996;28;20181;-74
2022/09/18 11:45:27;;;;;;;1.25;1.15;;;16.10;99.90;;;;;;5027977;28;20176;-78
2022/09/18 11:48:04;;;;;;;1.00;1.00;;;17.40;99.90;;;;;;5028796;28;20655;-74
2022/09/18 11:50:33;;;;;;;1.00;1.00;;;17.60;99.90;;;;;;5024458;28;20196;-74
2022/09/18 11:53:08;;;;;;;0.93;0.93;;;17.70;99.90;;;;;;5020236;28;20192;-74
2022/09/18 11:55:39;;;;;;;1.02;0.80;;;17.90;99.90;;;;;;5019065;28;20185;-75
2022/09/18 11:58:14;;;;;;;1.27;1.17;;;17.80;99.90;;;;;;5023850;28;20180;-75
2022/09/18 12:00:49;;;;;;;1.15;1.10;;;17.60;99.90;;;;;;5020994;28;20267;-75
2022/09/18 12:03:30;;;;;;;1.00;1.00;;;17.20;99.90;;;;;;5024295;28;20231;-75
2022/09/18 12:06:16;;;;;;;1.23;1.15;;;16.50;99.90;;;;;;5022606;28;20180;-74
2022/09/18 12:08:47;;;;;;;0.80;0.80;;;15.80;99.90;;;;;;5016648;28;20699;-74
2022/09/18 12:11:13;;;;;;;0.80;0.80;;;15.70;99.90;;;;;;5025392;28;20220;-74
2022/09/18 12:13:58;;;;;;;0.60;0.60;;;16.00;99.90;;;;;;5023069;28;20613;-75
2022/09/18 12:16:58;;;;;;;0.73;0.73;;;16.30;99.90;;;;;;5021366;28;20554;-74
2022/09/18 12:19:36;;;;;;;0.85;0.80;;;16.20;99.90;;;;;;5022737;28;20187;-74
2022/09/18 12:22:09;;;;;;;0.60;0.60;;;16.20;99.90;;;;;;5023415;28;20234;-74
2022/09/18 12:24:35;;;;;;;0.82;0.82;;;15.90;99.90;;;;;;5021761;28;20227;-74
2022/09/18 12:27:19;;;;;;;0.50;0.50;;;15.40;99.90;;;;;;5031508;28;20180;-74
2022/09/18 12:29:58;;;;;;;0.55;0.55;;;15.10;99.90;;;;;;5032778;28;20643;-74
2022/09/18 12:32:48;;;;;;;0.73;0.73;;;14.90;99.90;;;;;;5037998;28;20218;-74
2022/09/18 12:35:16;;;;;;;0.82;0.82;;;15.00;99.90;;;;;;5031453;28;20729;-74
2022/09/18 12:37:51;;;;;;;0.90;0.90;;;15.30;99.90;;;;;;5027171;28;20185;-75
2022/09/18 12:40:23;;;;;;;0.57;0.57;;;15.60;99.90;;;;;;5025072;28;20189;-74
2022/09/18 12:43:26;;;;;;;0.95;0.63;;;15.70;99.90;;;;;;5031527;28;20585;-75
2022/09/18 12:46:04;;;;;;;0.75;0.75;;;15.70;99.90;;;;;;5014852;28;20648;-74
2022/09/18 12:49:14;;;;;;;0.75;0.75;;;16.10;99.90;;;;;;5027476;28;20177;-74
2022/09/18 12:51:48;;;;;;;0.50;0.50;;;16.20;99.90;;;;;;5020295;28;20232;-74
2022/09/18 12:54:29;;;;;;;0.60;0.60;;;16.20;99.90;;;;;;5024998;28;20188;-74
2022/09/18 12:57:32;;;;;;;0.77;0.77;;;16.00;99.90;;;;;;5027236;28;20175;-76
2022/09/18 13:00:08;;;;;;;1.20;0.65;;;15.60;99.90;;;;;;5027313;28;20203;-74
2022/09/18 13:02:55;;;;;;;0.98;0.70;;;15.30;99.90;;;;;;5022540;28;20180;-74
2022/09/18 13:05:34;;;;;;;0.95;0.75;;;15.00;99.90;;;;;;5021518;28;20655;-75
2022/09/18 13:08:14;;;;;;;0.90;0.90;;;14.90;99.90;;;;;;5030144;28;20182;-74
2022/09/18 13:10:43;;;;;;;1.25;0.50;;;14.70;99.90;;;;;;5038076;28;20304;-74
2022/09/18 13:13:12;;;;;;;0.50;0.50;;;14.70;99.90;;;;;;5032233;28;20195;-75
2022/09/18 13:15:47;;;;;;;0.80;0.80;;;14.60;99.90;;;;;;5030394;28;20198;-75
2022/09/18 13:18:27;;;;;;;1.30;0.90;;;14.50;99.90;;;;;;5033811;28;20179;-75
2022/09/18 13:20:55;;;;;;;0.75;0.75;;;14.50;99.90;;;;;;5029094;28;20949;-74
2022/09/18 13:23:49;;;;;;;0.65;0.65;;;14.40;99.90;;;;;;5033930;28;20188;-75
2022/09/18 13:26:15;;;;;;;0.70;0.68;;;14.40;99.90;;;;;;5031007;28;20188;-75
2022/09/18 13:28:42;;;;;;;0.57;0.57;;;14.20;99.90;;;;;;5034064;28;20260;-75
2022/09/18 13:31:14;;;;;;;1.20;1.20;;;14.30;99.90;;;;;;5027880;28;20201;-74
2022/09/18 13:33:52;;;;;;;0.88;0.88;;;14.30;99.90;;;;;;5031975;28;20184;-74
2022/09/18 13:36:43;;;;;;;0.80;0.80;;;14.30;99.90;;;;;;5033495;28;20172;-75
2022/09/18 13:39:25;;;;;;;1.35;0.85;;;14.60;99.90;;;;;;5023396;28;20180;-75
2022/09/18 13:41:57;;;;;;;0.90;0.90;;;14.50;99.90;;;;;;5022108;28;20196;-75
2022/09/18 13:44:29;;;;;;;0.80;0.80;;;14.20;99.90;;;;;;5026225;28;20289;-74
2022/09/18 13:46:57;;;;;;;2.03;0.82;;;14.10;99.90;;;;;;5028800;28;20187;-74
2022/09/18 13:49:29;;;;;;;1.70;1.55;;;14.00;99.90;;;;;;5028937;28;20185;-75
2022/09/18 13:51:55;;;;;;;0.70;0.70;;;14.00;99.90;;;;;;5032274;28;20204;-75
2022/09/18 13:54:23;;;;;;;1.38;1.30;;;14.10;99.90;;;;;;5037004;28;20272;-74
2022/09/18 13:57:01;;;;;;;1.85;0.98;;;14.20;99.90;;;;;;5029333;28;20193;-75
2022/09/18 13:59:47;;;;;;;0.88;0.88;;;14.30;99.90;;;;;;5024553;28;20663;-75
2022/09/18 14:02:24;;;;;;;1.20;1.10;;;14.40;99.90;;;;;;5014219;28;20472;-75
2022/09/18 14:05:00;;;;;;;2.00;1.27;;;14.20;99.90;;;;;;5022782;28;20263;-75
2022/09/18 14:07:25;;;;;;;1.20;1.20;;;14.00;99.90;;;;;;5024211;28;20181;-75
2022/09/18 14:09:57;;;;;;;1.90;1.30;;;13.70;99.90;;;;;;5026107;28;20238;-76
2022/09/18 14:12:24;;;;;;;1.00;0.98;;;13.40;99.90;;;;;;5034406;28;20561;-76
2022/09/18 14:15:15;;;;;;;1.30;1.20;;;13.20;99.90;;;;;;5032752;28;20180;-77
2022/09/18 14:17:41;;;;;;;2.65;1.58;;;13.00;99.90;;;;;;5038081;28;20279;-76
2022/09/18 14:20:20;;;;;;;1.55;1.05;;;12.80;99.90;;;;;;5038076;28;20268;-77
2022/09/18 14:22:45;;;;;;;2.47;1.20;;;12.90;99.90;;;;;;5030071;28;20268;-73
2022/09/18 14:25:12;;;;;;;1.35;1.25;;;12.90;99.90;;;;;;5030353;28;20252;-73
2022/09/18 14:27:47;;;;;;;1.13;1.13;;;12.90;99.90;;;;;;5030778;28;20239;-74
2022/09/18 14:30:17;;;;;;;2.88;1.20;;;13.10;99.90;;;;;;5026598;28;20195;-74
2022/09/18 14:33:04;;;;;;;1.75;1.65;;;13.20;99.90;;;;;;5022197;28;20173;-73
2022/09/18 14:35:36;;;;;;;2.25;1.25;;;13.40;99.90;;;;;;5024599;28;20172;-74
2022/09/18 14:38:14;;;;;;;2.17;1.10;;;13.50;99.90;;;;;;5030389;28;20180;-74
2022/09/18 14:40:39;;;;;;;1.35;1.10;;;13.60;99.90;;;;;;5034499;28;20200;-74
2022/09/18 14:43:15;;;;;;;1.33;1.23;;;13.70;99.90;;;;;;5031753;28;20214;-74
2022/09/18 14:45:40;;;;;;;1.27;1.23;;;13.70;99.90;;;;;;5030971;28;20178;-74
2022/09/18 14:48:28;;;;;;;1.70;1.10;;;13.80;99.90;;;;;;5027755;28;20715;-79
2022/09/18 14:51:14;;;;;;;2.05;1.30;;;13.80;99.90;;;;;;5035658;28;20207;-80
2022/09/18 14:53:45;;;;;;;1.55;1.27;;;13.80;99.90;;;;;;5034304;28;20239;-76
2022/09/18 14:56:18;;;;;;;1.30;1.08;;;13.90;99.90;;;;;;5033047;28;20180;-78
2022/09/18 14:58:45;;;;;;;1.40;1.13;;;14.00;99.90;;;;;;5040618;28;20185;-80
2022/09/18 15:01:24;;;;;;;2.42;1.17;;;14.00;99.90;;;;;;5043416;28;20279;-77
2022/09/18 15:03:52;;;;;;;1.08;1.08;;;14.00;99.90;;;;;;5031488;28;20235;-77
2022/09/18 15:06:36;;;;;;;0.75;0.75;;;14.00;99.90;;;;;;5030327;28;20180;-76
2022/09/18 15:09:03;;;;;;;6.55;1.38;;;14.00;99.90;;;;;;5035821;28;20179;-79
2022/09/18 15:11:30;;;;;;;1.63;1.52;;;13.90;99.90;;;;;;5042746;28;20230;-77
2022/09/18 15:13:55;;;;;;;3.35;1.55;;;13.70;99.90;;;;;;5039299;28;20187;-80
2022/09/18 15:16:29;;;;;;;1.63;1.52;;;13.60;99.90;;;;;;5037599;28;20184;-78
2022/09/18 15:18:59;;;;;;;1.38;1.25;;;13.30;99.90;;;;;;5044009;28;20235;-79
2022/09/18 15:21:31;;;;;;;1.48;1.35;;;13.10;99.90;;;;;;5038876;28;20223;-76
2022/09/18 15:24:00;;;;;;;2.90;1.80;;;12.80;99.90;;;;;;5040877;28;20244;-76
2022/09/18 15:26:35;;;;;;;1.00;1.00;;;12.70;99.90;;;;;;5042956;28;20234;-74
2022/09/18 15:29:01;;;;;;;1.33;1.33;;;12.60;99.90;;;;;;5030742;28;20242;-73
2022/09/18 15:31:30;;;;;;;3.22;2.05;;;12.40;99.90;;;;;;5036993;28;20283;-72
2022/09/18 15:34:07;;;;;;;3.15;2.45;;;12.30;99.90;;;;;;5028899;28;20255;-72
2022/09/18 15:36:36;;;;;;;1.50;1.40;;;12.30;99.90;;;;;;5042014;28;20179;-74
2022/09/18 15:39:04;;;;;;;1.70;1.58;;;12.20;99.90;;;;;;5036509;28;20205;-75
2022/09/18 15:41:40;;;;;;;4.95;2.75;;;12.20;99.90;;;;;;5033348;28;20212;-74
2022/09/18 15:44:48;;;;;;;1.50;1.40;;;12.10;99.90;;;;;;5032018;28;20200;-74
2022/09/18 15:47:33;;;;;;;1.98;1.75;;;12.00;99.90;;;;;;5032332;28;20601;-74
2022/09/18 15:50:20;;;;;;;1.80;1.70;;;12.10;99.90;;;;;;5029261;28;20207;-76
2022/09/18 15:53:00;;;;;;;2.03;1.60;;;12.10;99.90;;;;;;5021363;28;20640;-77
2022/09/18 15:55:32;;;;;;;2.72;1.90;;;12.10;99.90;;;;;;5024889;28;20181;-73
2022/09/18 15:58:18;;;;;;;1.35;1.25;;;12.00;99.90;;;;;;5027734;28;20172;-76
2022/09/18 16:00:55;;;;;;;3.08;2.13;;;11.90;99.90;;;;;;5042042;28;20203;-73
2022/09/18 16:03:21;;;;;;;2.30;1.85;;;11.80;99.90;;;;;;5032144;28;20201;-73
2022/09/18 16:05:56;;;;;;;2.10;1.70;;;11.80;99.90;;;;;;5027655;28;20579;-73
2022/09/18 16:08:27;;;;;;;2.13;1.45;;;11.70;99.90;;;;;;5034162;28;20172;-73
2022/09/18 16:10:54;;;;;;;2.13;1.77;;;11.70;99.90;;;;;;5041776;28;20192;-73
2022/09/18 16:13:20;;;;;;;2.72;2.03;;;11.70;99.90;;;;;;5045230;28;20181;-73
2022/09/18 16:15:58;;;;;;;1.70;1.60;;;11.60;99.90;;;;;;5042655;28;20184;-78
2022/09/18 16:18:27;;;;;;;1.50;1.42;;;11.50;99.90;;;;;;5039482;28;20177;-73
2022/09/18 16:20:53;;;;;;;2.72;1.65;;;11.40;99.90;;;;;;5048908;28;20246;-73
2022/09/18 16:23:28;;;;;;;1.20;1.10;;;11.40;99.90;;;;;;5035156;28;20287;-73
2022/09/18 16:26:10;;;;;;;1.55;1.45;;;11.50;99.90;;;;;;5035027;28;20932;-73
2022/09/18 16:28:49;;;;;;;4.10;1.60;;;11.40;99.90;;;;;;5034142;28;20274;-73
2022/09/18 16:31:18;;;;;;;1.60;1.50;;;11.20;99.90;;;;;;5035268;28;20621;-73
2022/09/18 16:34:00;;;;;;;1.50;1.40;;;11.20;99.90;;;;;;5044790;28;20177;-73
2022/09/18 16:36:37;;;;;;;1.27;1.17;;;11.00;99.90;;;;;;5046580;28;20650;-73
2022/09/18 16:39:07;;;;;;;1.38;1.17;;;10.90;99.90;;;;;;5038255;28;20192;-73
2022/09/18 16:41:34;;;;;;;2.08;1.35;;;10.80;99.90;;;;;;5030497;28;20679;-73
2022/09/18 16:44:02;;;;;;;2.22;1.23;;;10.80;99.90;;;;;;5044858;28;20204;-72
2022/09/18 16:46:32;;;;;;;1.90;1.80;;;10.80;99.90;;;;;;5036115;28;20211;-73
2022/09/18 16:48:59;;;;;;;2.75;1.40;;;10.70;99.90;;;;;;5034381;28;20678;-73
2022/09/18 16:51:24;;;;;;;1.52;1.42;;;10.70;99.90;;;;;;5045059;28;20204;-73
2022/09/18 16:53:50;;;;;;;1.50;1.40;;;10.70;99.90;;;;;;5042127;28;20193;-72
2022/09/18 16:56:20;;;;;;;2.95;1.67;;;10.60;99.90;;;;;;5027261;28;20222;-72
2022/09/18 16:58:46;;;;;;;1.58;1.48;;;10.60;99.90;;;;;;5045955;28;20179;-73
2022/09/18 17:01:11;;;;;;;1.80;1.70;;;10.50;99.90;;;;;;5027363;28;20209;-72
2022/09/18 17:03:37;;;;;;;1.83;1.67;;;10.50;99.90;;;;;;5028011;28;20212;-73
2022/09/18 17:06:02;;;;;;;2.83;2.72;;;10.50;99.90;;;;;;5029672;28;20184;-72
2022/09/18 17:08:29;;;;;;;2.40;1.80;;;10.40;99.90;;;;;;5037094;28;20252;-73
2022/09/18 17:10:55;;;;;;;1.70;1.60;;;10.50;99.90;;;;;;5033840;28;20200;-72
2022/09/18 17:13:21;;;;;;;2.92;2.20;;;10.40;99.90;;;;;;5022536;28;20414;-72
2022/09/18 17:15:47;;;;;;;3.28;2.53;;;10.50;99.90;;;;;;5036750;28;20337;-72
2022/09/18 17:18:13;;;;;;;3.40;3.08;;;10.40;99.90;;;;;;5042334;28;20671;-74
2022/09/18 17:20:39;;;;;;;4.45;3.45;;;10.40;99.90;;;;;;5041435;28;20204;-74
2022/09/18 17:23:05;;;;;;;2.40;2.20;;;10.30;99.90;;;;;;5039815;28;20209;-74
2022/09/18 17:25:31;;;;;;;3.15;2.58;;;10.20;99.90;;;;;;5032036;28;20183;-73
2022/09/18 17:27:57;;;;;;;3.33;3.17;;;10.10;99.90;;;;;;5036179;28;20185;-72
2022/09/18 17:30:24;;;;;;;3.45;2.08;;;10.20;99.90;;;;;;5031923;28;20287;-71
2022/09/18 17:32:49;;;;;;;2.28;1.90;;;10.10;99.90;;;;;;5031127;28;20169;-72
2022/09/18 17:35:16;;;;;;;3.08;2.30;;;10.00;99.90;;;;;;5032652;28;20180;-72
2022/09/18 17:37:41;;;;;;;3.25;2.60;;;10.00;99.90;;;;;;5034433;28;20261;-71
2022/09/18 17:40:08;;;;;;;4.57;2.05;;;10.10;99.90;;;;;;5033199;28;20311;-71
2022/09/18 17:42:35;;;;;;;2.28;2.08;;;10.10;99.90;;;;;;5027615;28;20196;-71
2022/09/18 17:45:01;;;;;;;1.33;1.33;;;10.10;99.90;;;;;;5026741;28;20187;-72
2022/09/18 17:47:27;;;;;;;2.45;2.00;;;10.10;99.90;;;;;;5033091;28;20644;-71
2022/09/18 17:49:52;;;;;;;2.85;2.10;;;10.00;99.90;;;;;;5027970;28;20171;-71
2022/09/18 17:52:18;;;;;;;3.00;1.80;;;10.00;99.90;;;;;;5022801;28;20217;-71
2022/09/18 17:54:43;;;;;;;4.13;2.05;;;10.00;99.90;;;;;;5023338;28;20185;-72
2022/09/18 17:57:12;;;;;;;1.98;1.88;;;10.00;99.90;;;;;;5033071;28;20203;-70
2022/09/18 17:59:42;;;;;;;1.80;1.70;;;9.90;99.90;;;;;;5028444;28;20180;-75
2022/09/18 18:02:10;;;;;;;1.30;1.27;;;9.90;99.90;;;;;;5028809;28;20382;-72
2022/09/18 18:04:36;;;;;;;1.35;1.20;;;9.90;99.90;;;;;;5023301;28;20254;-71
2022/09/18 18:07:03;;;;;;;1.08;1.08;;;9.90;99.90;;;;;;5022668;28;20676;-72
2022/09/18 18:09:28;;;;;;;1.35;1.35;;;9.90;99.90;;;;;;5025117;28;20189;-72
2022/09/18 18:11:54;;;;;;;3.08;1.75;;;9.90;99.90;;;;;;5022506;28;20267;-72
2022/09/18 18:14:23;;;;;;;4.30;1.80;;;9.80;99.90;;;;;;5025229;28;20181;-72
2022/09/18 18:16:49;;;;;;;1.77;1.67;;;9.70;99.90;;;;;;5026370;28;20226;-73
2022/09/18 18:19:15;;;;;;;2.50;2.30;;;9.70;99.90;;;;;;5022046;28;20189;-72
2022/09/18 18:21:42;;;;;;;2.38;2.03;;;9.70;99.90;;;;;;5025778;28;21619;-73
2022/09/18 18:24:11;;;;;;;4.47;2.25;;;9.70;99.90;;;;;;5023300;28;20610;-73
2022/09/18 18:26:38;;;;;;;3.20;2.38;;;9.60;99.90;;;;;;5030713;28;20267;-72
2022/09/18 18:29:09;;;;;;;2.65;2.38;;;9.60;99.90;;;;;;5023087;28;20181;-72
2022/09/18 18:31:39;;;;;;;3.80;2.63;;;9.50;99.90;;;;;;5020519;28;20193;-72
2022/09/18 18:34:09;;;;;;;2.83;2.40;;;9.50;99.90;;;;;;5028190;28;20565;-73
2022/09/18 18:36:35;;;;;;;2.78;2.33;;;9.60;99.90;;;;;;5021081;28;20714;-73
2022/09/18 18:39:04;;;;;;;2.20;2.10;;;9.60;99.90;;;;;;5016278;28;20185;-73
2022/09/18 18:41:31;;;;;;;2.20;2.10;;;9.50;99.90;;;;;;5016706;28;20229;-74
2022/09/18 18:44:00;;;;;;;3.55;2.30;;;9.60;99.90;;;;;;5029134;28;20216;-73
2022/09/18 18:46:27;;;;;;;2.63;2.42;;;9.60;99.90;;;;;;5040402;28;20176;-73
2022/09/18 18:49:02;;;;;;;1.60;1.60;;;9.60;99.90;;;;;;5038880;28;20175;-72
2022/09/18 18:51:30;;;;;;;2.67;2.47;;;9.70;99.90;;;;;;5038744;28;20195;-73
2022/09/18 18:54:00;;;;;;;4.75;2.70;;;9.60;99.90;;;;;;5018663;28;20183;-72
2022/09/18 18:56:25;;;;;;;2.78;2.50;;;9.50;99.90;;;;;;5021228;28;20189;-73
2022/09/18 18:59:02;;;;;;;2.55;2.13;;;9.50;99.90;;;;;;5019517;28;20807;-72
2022/09/18 19:01:29;;;;;;;4.25;2.35;;;9.60;99.90;;;;;;5020048;28;20703;-72
2022/09/18 19:03:58;;;;;;;2.55;2.35;;;9.60;99.90;;;;;;5023098;28;20226;-74
2022/09/18 19:06:25;;;;;;;2.50;2.40;;;9.50;99.90;;;;;;5028048;28;20181;-72
2022/09/18 19:08:59;;;;;;;4.88;2.92;;;9.50;99.90;;;;;;5034730;28;20543;-72
2022/09/18 19:11:25;;;;;;;6.68;3.03;;;9.50;99.90;;;;;;5030104;28;20573;-73
2022/09/18 19:13:55;;;;;;;2.75;2.55;;;9.50;99.90;;;;;;5030872;28;20176;-72
2022/09/18 19:16:21;;;;;;;2.60;2.50;;;9.50;99.90;;;;;;5029351;28;20177;-72
2022/09/18 19:18:52;;;;;;;3.00;2.75;;;9.50;99.90;;;;;;5031576;28;20247;-72
2022/09/18 19:21:19;;;;;;;3.80;3.33;;;9.40;99.90;;;;;;5019870;28;20695;-72
2022/09/18 19:23:51;;;;;;;2.72;2.58;;;9.40;99.90;;;;;;5026927;28;20786;-72
2022/09/18 19:26:21;;;;;;;1.92;1.85;;;9.50;99.90;;;;;;5022787;28;20173;-72
2022/09/18 19:28:51;;;;;;;4.05;3.30;;;9.50;99.90;;;;;;5024262;28;20172;-72
2022/09/18 19:31:18;;;;;;;3.40;2.90;;;9.50;99.90;;;;;;5027106;28;20667;-73
2022/09/18 19:33:45;;;;;;;2.85;2.70;;;9.40;99.90;;;;;;5029417;28;20180;-73
2022/09/18 19:36:11;;;;;;;3.25;3.05;;;9.40;99.90;;;;;;5026626;28;20176;-73
2022/09/18 19:38:36;;;;;;;2.85;2.65;;;9.20;99.90;;;;;;5026224;28;20258;-73
2022/09/18 19:41:09;;;;;;;2.33;2.20;;;9.40;99.90;;;;;;5029132;28;20618;-73
2022/09/18 19:43:38;;;;;;;2.67;2.50;;;9.30;99.90;;;;;;5028027;28;20204;-73
2022/09/18 19:46:08;;;;;;;3.95;2.58;;;9.40;99.90;;;;;;5024401;28;20172;-72
2022/09/18 19:48:34;;;;;;;2.75;2.55;;;9.40;99.90;;;;;;5023295;28;20184;-72
2022/09/18 19:51:00;;;;;;;3.10;2.78;;;9.40;99.90;;;;;;5023392;28;20694;-72
2022/09/18 19:53:26;;;;;;;4.00;2.53;;;9.40;99.90;;;;;;5023647;28;20185;-72
2022/09/18 19:55:51;;;;;;;2.40;2.30;;;9.40;99.90;;;;;;5025492;28;20614;-73
2022/09/18 19:58:18;;;;;;;2.95;2.65;;;9.40;99.90;;;;;;5025895;28;20568;-72
2022/09/18 20:00:45;;;;;;;2.83;2.72;;;9.40;99.90;;;;;;5025396;28;20677;-72
2022/09/18 20:03:11;;;;;;;3.10;2.08;;;9.30;99.90;;;;;;5031254;28;20231;-73
2022/09/18 20:05:37;;;;;;;3.00;2.78;;;9.30;99.90;;;;;;5028474;28;20223;-72
2022/09/18 20:08:05;;;;;;;2.95;2.65;;;9.40;99.90;;;;;;5022293;28;20169;-73
2022/09/18 20:10:36;;;;;;;3.70;2.72;;;9.40;99.90;;;;;;5026442;28;20250;-73
2022/09/18 20:13:02;;;;;;;6.13;2.85;;;9.40;99.90;;;;;;5022831;28;20177;-73
2022/09/18 20:15:28;;;;;;;2.95;2.20;;;9.40;99.90;;;;;;5025660;28;20549;-72
2022/09/18 20:17:57;;;;;;;2.55;2.45;;;9.50;99.90;;;;;;5025070;28;20185;-73
2022/09/18 20:20:24;;;;;;;1.85;1.75;;;9.40;99.90;;;;;;5022408;28;20572;-72
2022/09/18 20:22:54;;;;;;;3.17;2.72;;;9.40;99.90;;;;;;5023853;28;21214;-72
2022/09/18 20:25:19;;;;;;;2.15;2.05;;;9.40;99.90;;;;;;5018411;28;20184;-72
2022/09/18 20:27:45;;;;;;;2.00;1.90;;;9.40;99.90;;;;;;5024181;28;20182;-72
2022/09/18 20:30:11;;;;;;;1.88;1.77;;;9.40;99.90;;;;;;5034476;28;20566;-72
2022/09/18 20:32:37;;;;;;;3.67;2.22;;;9.40;99.90;;;;;;5024912;28;20189;-72
2022/09/18 20:35:04;;;;;;;2.80;2.20;;;9.30;99.90;;;;;;5021948;28;20656;-72
2022/09/18 20:37:31;;;;;;;5.45;3.75;;;9.30;99.90;;;;;;5025574;28;20189;-72
2022/09/18 20:40:02;;;;;;;1.55;1.48;;;9.20;99.90;;;;;;5036032;28;20179;-72
2022/09/18 20:42:31;;;;;;;2.80;2.60;;;9.20;99.90;;;;;;5038542;28;20173;-72
2022/09/18 20:45:03;;;;;;;4.70;3.20;;;9.20;99.90;;;;;;5033207;28;20200;-72
2022/09/18 20:47:35;;;;;;;3.15;2.90;;;9.20;99.90;;;;;;5039274;28;20184;-72
2022/09/18 20:50:06;;;;;;;3.13;2.83;;;9.20;99.90;;;;;;5025406;28;20282;-72
2022/09/18 20:52:37;;;;;;;2.72;2.63;;;9.30;99.90;;;;;;5036490;28;20188;-72
2022/09/18 20:55:07;;;;;;;3.03;2.78;;;9.30;99.90;;;;;;5031711;28;20212;-72
2022/09/18 20:57:33;;;;;;;3.72;2.47;;;9.20;99.90;;;;;;5038148;28;20548;-72
2022/09/18 20:59:59;;;;;;;2.00;1.90;;;9.30;99.90;;;;;;5026230;28;20194;-72
2022/09/18 21:02:25;;;;;;;6.80;2.13;;;9.30;99.90;;;;;;5033893;28;20170;-71
2022/09/18 21:04:51;;;;;;;3.35;3.00;;;9.30;99.90;;;;;;5038902;28;20203;-72